KEFD/EFD METAR and TAF weather

Enter ICAO airport designator
Station Type Date Time Source
KEFD METAR 2024/04/17 17:54 UTC NOAA

KEFD 171754Z 13010KT 9SM BKN015 26/20 A2998


Station Type Date Time Source
KEFD Decoded METAR 2024/04/17 17:54 UTC NOAA

Houston / Ellington, TX, United States (KEFD) 29-36N 095-10W
Apr 17, 2024 - 01:54 PM EDT / 2024.04.17 1754 UTC
Wind: from the SE (130 degrees) at 12 MPH (10 KT):0
Visibility: 9 mile(s):0
Sky conditions: mostly cloudy
Temperature: 78 F (26 C)
Dew Point: 68 F (20 C)
Relative Humidity: 69%
Pressure (altimeter): 29.98 in. Hg (1015 hPa)
ob: KEFD 171754Z 13010KT 9SM BKN015 26/20 A2998
cycle: 18

Station Type Date Time Source
KEFD TAF 2024/04/17 13:30 UTC NOAA